Terminal Aerodrome Forecast
Issued by NWS

Home | Current Version | Previous Version | Text Only | Print | Product List | Glossary On
Versions: 1 2 3 4 5 6 7 8 9 10 11 12 13 14
000
FTUS45 KTFX 291724
TAFHVR
TAF
KHVR 291724Z 2918/3018 10009KT P6SM OVC040
     FM292200 11012KT P6SM SCT040
     FM300200 10013KT P6SM BKN200
     FM301700 11009KT P6SM SCT080 BKN150=

USA.gov is the U.S. government's official web portal to all federal, state and local government web resources and services.